Data for 07/09/2005

Time Sea-Level Adjusted Pressure Absolute Pressure Temperature Relative Humidity Dew Point   
(mb) (inHg) (mb) (inHg) (C) (F) (%) (C) (F)
00:05 1013 29.91 842 24.86 22.3 72.1 38 7.4 45.3
00:10 1013 29.91 842 24.86 21.3 70.3 41 7.5 45.6
00:15 1013 29.91 842 24.86 20.3 68.6 42 7.3 45.2
00:20 1013 29.91 842 24.86 20.3 68.5 39 5.9 42.7
00:25 1013 29.91 842 24.86 20.2 68.4 46 8.3 47
00:30 1013 29.91 842 24.86 19.7 67.5 43 7 44.6
00:35 1013 29.91 842 24.86 20.4 68.8 42 7.3 45.1
00:40 1013 29.91 842 24.86 20.6 69.1 41 7.1 44.8
00:45 1013 29.91 842 24.86 20.4 68.7 40 6.5 43.6
00:50 1013 29.91 842 24.86 20.5 68.9 42 7.2 44.9
00:55 1013 29.91 842 24.86 20.7 69.3 36 5.3 41.6
01:00 1013 29.91 842 24.86 20.7 69.2 43 7.9 46.2
01:05 1012 29.88 842 24.86 20.2 68.4 48 9.1 48.4
01:10 1012 29.88 842 24.86 19.8 67.7 40 6 42.8
01:15 1012 29.88 842 24.86 19.9 67.8 42 6.9 44.4
01:20 1012 29.88 842 24.86 19.9 67.9 42 7 44.5
01:25 1012 29.88 842 24.86 20.5 68.8 40 6.5 43.7
01:30 1012 29.88 842 24.86 20.4 68.7 42 7.2 45
01:35 1012 29.88 842 24.86 19.7 67.4 42 6.7 44.1
01:40 1012 29.88 842 24.86 20.5 69 40 6.6 43.8
01:45 1012 29.88 842 24.86 20.4 68.7 40 6.5 43.7
01:50 1012 29.88 842 24.86 20.5 68.9 34 4.2 39.6
01:55 1013 29.91 842 24.86 21 69.8 39 6.7 44
02:00 1013 29.91 842 24.86 21.5 70.7 35 5.7 42.3
02:05 1013 29.91 842 24.86 21.6 70.8 33 4.8 40.6
02:10 1013 29.91 842 24.86 21.5 70.7 34 5.1 41.2
02:15 1013 29.91 842 24.86 21.3 70.3 34 5.1 41.2
02:20 1013 29.91 842 24.86 21.2 70.2 34 4.7 40.4
02:25 1013 29.91 842 24.86 21.2 70.2 37 6.1 43
02:30 1013 29.91 842 24.86 20.6 69.1 43 7.8 46.1
02:35 1013 29.91 842 24.86 19.6 67.3 42 6.5 43.7
02:40 1013 29.91 842 24.86 19.4 66.9 41 6 42.8
02:45 1013 29.91 842 24.86 19.6 67.3 41 6.1 42.9
02:50 1013 29.91 842 24.86 19.6 67.3 42 6.7 44
02:55 1013 29.91 842 24.86 19.2 66.5 42 6 42.9
03:00 1013 29.91 842 24.86 19.4 66.9 40 5.7 42.3
03:05 1012 29.88 842 24.86 19.8 67.6 39 5.8 42.4
03:10 1012 29.88 842 24.86 20.2 68.3 38 5.5 41.9
03:15 1012 29.88 841 24.83 20.2 68.3 39 5.9 42.7
03:20 1012 29.88 841 24.83 19.8 67.7 39 5.5 41.9
03:25 1012 29.88 841 24.83 20.1 68.1 37 5.1 41.2
03:30 1012 29.88 841 24.83 20.2 68.3 37 5.1 41.1
03:35 1012 29.88 841 24.83 20.4 68.7 35 4.6 40.2
03:40 1012 29.88 842 24.86 20.3 68.5 42 7.1 44.8
03:45 1012 29.88 841 24.83 19.5 67 42 6.5 43.6
03:50 1012 29.88 841 24.83 19 66.2 42 6.1 43
03:55 1012 29.88 841 24.83 18.8 65.8 43 6.2 43.2
04:00 1012 29.88 841 24.83 18.6 65.4 47 7.2 45
04:05 1012 29.88 841 24.83 18.7 65.6 42 5.7 42.2
04:10 1012 29.88 841 24.83 18.6 65.5 47 7.1 44.8
04:15 1012 29.88 841 24.83 18.1 64.5 52 8.1 46.7
04:20 1012 29.88 841 24.83 17.8 64.1 48 6.7 44
04:25 1012 29.88 841 24.83 17.5 63.4 51 7.3 45.1
04:30 1012 29.88 841 24.83 16.9 62.4 54 7.7 45.8
04:35 1012 29.88 841 24.83 16.5 61.8 51 6.5 43.7
04:40 1012 29.88 841 24.83 17.2 63 52 7.3 45.1
04:45 1012 29.88 841 24.83 17.7 63.9 43 5.2 41.3
04:50 1012 29.88 841 24.83 18.6 65.5 46 6.8 44.3
04:55 1012 29.88 841 24.83 18 64.3 45 6 42.8
05:00 1012 29.88 841 24.83 17.5 63.5 47 6.2 43.2
05:05 1012 29.88 841 24.83 17 62.5 48 6 42.9
05:10 1011 29.85 841 24.83 17 62.6 50 6.6 43.9
05:15 1011 29.85 841 24.83 17 62.7 46 5.4 41.7
05:20 1011 29.85 841 24.83 17.3 63.1 41 3.9 39.1
05:25 1011 29.85 841 24.83 18 64.3 38 3.4 38.1
05:30 1011 29.85 840 24.81 18.6 65.4 36 3.3 37.9
05:35 1011 29.85 841 24.83 18.6 65.4 35 2.9 37.3
05:40 1011 29.85 841 24.83 19 66.1 35 3.5 38.2
05:45 1011 29.85 841 24.83 18.5 65.3 39 4.4 39.9
05:50 1011 29.85 840 24.81 18.1 64.7 39 4 39.3
05:55 1011 29.85 840 24.81 18.4 65 38 3.7 38.7
06:00 1011 29.85 840 24.81 18.5 65.4 36 3.4 38.1
06:05 1011 29.85 840 24.81 18.8 65.8 35 3.3 37.9
06:10 1011 29.85 840 24.81 18.9 66 34 2.8 37.1
06:15 1011 29.85 840 24.81 19.5 67.1 33 2.8 37.1
06:20 1011 29.85 840 24.81 20.1 68.1 32 3 37.3
06:25 1011 29.85 840 24.81 20.3 68.5 31 2.8 37
06:30 1011 29.85 841 24.83 20.6 69.1 31 2.9 37.2
06:35 1011 29.85 841 24.83 20.8 69.5 31 3.3 37.9
06:40 1011 29.85 841 24.83 21.1 69.9 30 3.1 37.6
06:45 1011 29.85 841 24.83 21.2 70.2 31 3.4 38.1
06:50 1012 29.88 841 24.83 21.1 69.9 30 3.2 37.8
06:55 1012 29.88 841 24.83 21.3 70.3 31 3.7 38.6
07:00 1012 29.88 841 24.83 21.2 70.1 31 3.7 38.7
07:05 1012 29.88 841 24.83 21 69.9 33 4.4 39.9
07:10 1012 29.88 841 24.83 20.6 69.1 35 4.6 40.3
07:15 1012 29.88 841 24.83 21.1 70 34 4.7 40.4
07:20 1012 29.88 841 24.83 21.2 70.2 35 5.2 41.3
07:25 1012 29.88 841 24.83 21.2 70.2 35 5.5 41.9
07:30 1012 29.88 841 24.83 20.7 69.3 38 6.1 42.9
07:35 1012 29.88 841 24.83 20.7 69.2 38 5.9 42.6
07:40 1012 29.88 841 24.83 20.6 69.1 39 6.2 43.2
07:45 1012 29.88 841 24.83 20.7 69.2 39 6.4 43.5
07:50 1012 29.88 841 24.83 20.8 69.5 39 6.6 43.9
07:55 1012 29.88 841 24.83 21.2 70.1 40 7.1 44.7
08:00 1012 29.88 841 24.83 21.9 71.3 37 6.9 44.4
08:05 1012 29.88 841 24.83 22.8 73 35 6.5 43.8
08:10 1012 29.88 841 24.83 23.2 73.7 35 7.2 44.9
08:15 1012 29.88 841 24.83 23.1 73.6 35 6.8 44.3
08:20 1012 29.88 841 24.83 23 73.5 36 7.2 45
08:25 1012 29.88 841 24.83 23.4 74.2 34 7 44.6
08:30 1012 29.88 841 24.83 24 75.1 33 6.9 44.4
08:35 1012 29.88 841 24.83 24.4 75.8 33 7.2 45
08:40 1012 29.88 841 24.83 24.5 76 33 7.5 45.5
08:45 1012 29.88 842 24.86 24.6 76.3 32 7.1 44.7
08:50 1012 29.88 841 24.83 24.4 75.9 35 8.1 46.6
08:55 1012 29.88 841 24.83 24.4 75.8 33 7.4 45.4
09:00 1012 29.88 841 24.83 24.7 76.5 32 7.1 44.8
09:05 1012 29.88 841 24.83 25.1 77.2 30 6.7 44
09:10 1012 29.88 842 24.86 24.8 76.7 33 7.7 45.8
09:15 1012 29.88 842 24.86 25.3 77.5 34 8.4 47.2
09:20 1012 29.88 842 24.86 25.1 77.1 34 8.2 46.7
09:25 1013 29.91 842 24.86 24.5 76.1 34 7.7 45.9
09:30 1013 29.91 842 24.86 24.1 75.3 35 7.9 46.2
09:35 1013 29.91 842 24.86 24.3 75.8 34 7.7 45.8
09:40 1013 29.91 842 24.86 24.3 75.8 35 8.2 46.7
09:45 1013 29.91 842 24.86 24.7 76.5 34 8 46.5
09:50 1013 29.91 842 24.86 25.1 77.2 35 8.6 47.5
09:55 1013 29.91 842 24.86 24.4 76 35 8.1 46.6
10:00 1013 29.91 842 24.86 24.5 76.1 33 7.6 45.6
10:05 1013 29.91 842 24.86 24.7 76.4 34 8.1 46.5
10:10 1013 29.91 842 24.86 25.3 77.5 34 8.5 47.2
10:15 1013 29.91 842 24.86 25.3 77.6 37 9.9 49.8
10:20 1013 29.91 843 24.89 25.2 77.3 41 11.2 52.1
10:25 1013 29.91 843 24.89 24.1 75.5 46 12 53.6
10:30 1013 29.91 843 24.89 22.7 72.9 49 11.7 53.1
10:35 1013 29.91 843 24.89 22.7 72.8 47 11 51.8
10:40 1013 29.91 842 24.86 22.8 73 46 10.9 51.5
10:45 1013 29.91 843 24.89 22.9 73.3 49 11.7 53
10:50 1013 29.91 843 24.89 23.2 73.7 49 12.1 53.8
10:55 1013 29.91 843 24.89 23.4 74.2 46 11.5 52.6
11:00 1013 29.91 843 24.89 23.8 74.8 46 11.8 53.2
11:05 1013 29.91 843 24.89 23.8 74.8 45 11.5 52.6
11:10 1013 29.91 843 24.89 23.6 74.5 43 10.6 51
11:15 1014 29.94 843 24.89 24 75.2 44 11.4 52.5
11:20 1013 29.91 843 24.89 23.9 75.1 39 9.5 49
11:25 1014 29.94 843 24.89 24.1 75.4 38 9.1 48.4
11:30 1014 29.94 843 24.89 24.1 75.4 37 8.6 47.5
11:35 1013 29.91 843 24.89 24.4 76 34 7.8 46
11:40 1014 29.94 843 24.89 24.4 75.9 38 9.4 48.8
11:45 1013 29.91 843 24.89 24.5 76.1 38 9.4 48.9
11:50 1014 29.94 843 24.89 24.9 76.8 36 9 48.2
11:55 1014 29.94 843 24.89 24.8 76.6 37 9.5 49.1
12:00 1014 29.94 843 24.89 24 75.2 41 10 50
12:05 1014 29.94 843 24.89 24.1 75.3 40 9.9 49.9
12:10 1013 29.91 843 24.89 24.2 75.6 38 9.1 48.4
12:15 1013 29.91 843 24.89 24.4 76 37 9.1 48.4
12:20 1013 29.91 843 24.89 25.2 77.3 35 8.7 47.6
12:25 1014 29.94 843 24.89 25.4 77.8 35 9.3 48.7
12:30 1013 29.91 843 24.89 25.4 77.7 35 9.2 48.5
12:35 1013 29.91 843 24.89 25.5 78 35 9.3 48.7
12:40 1013 29.91 843 24.89 25.2 77.3 36 9.3 48.8
12:45 1013 29.91 842 24.86 25.3 77.5 35 9 48.2
12:50 1013 29.91 843 24.89 25.9 78.6 35 9.5 49
12:55 1013 29.91 842 24.86 25.5 77.8 36 9.7 49.4
13:00 1013 29.91 842 24.86 25.3 77.6 35 9.1 48.4
13:05 1013 29.91 842 24.86 25.9 78.6 35 9.6 49.2
13:10 1013 29.91 842 24.86 26.1 78.9 35 9.6 49.2
13:15 1013 29.91 842 24.86 25.5 78 37 10.2 50.4
13:20 1013 29.91 842 24.86 24.9 76.8 39 10 50
13:25 1013 29.91 842 24.86 25.2 77.4 37 9.7 49.5
13:30 1013 29.91 842 24.86 25.6 78.1 36 9.7 49.5
13:35 1013 29.91 842 24.86 25.1 77.2 38 9.9 49.7
13:40 1013 29.91 842 24.86 25.1 77.2 36 9.1 48.5
13:45 1013 29.91 842 24.86 26.1 78.9 35 9.4 49
13:50 1012 29.88 842 24.86 25.6 78.1 35 9.3 48.7
13:55 1012 29.88 842 24.86 26.1 78.9 35 9.6 49.3
14:00 1012 29.88 842 24.86 26.1 79 36 10 50
14:05 1012 29.88 841 24.83 26.2 79.2 34 9.5 49.1
14:10 1012 29.88 841 24.83 26.1 79 35 9.6 49.4
14:15 1012 29.88 841 24.83 26.6 79.8 34 9.7 49.4
14:20 1012 29.88 841 24.83 27 80.5 33 9.5 49.2
14:25 1012 29.88 841 24.83 27.7 81.8 32 9.8 49.6
14:30 1012 29.88 841 24.83 28.2 82.7 31 9.8 49.6
14:35 1012 29.88 841 24.83 27.7 81.8 32 9.5 49.2
14:40 1012 29.88 841 24.83 27.6 81.7 32 9.8 49.6
14:45 1012 29.88 841 24.83 28.4 83.2 30 9.3 48.8
14:50 1012 29.88 841 24.83 28.9 84 30 10.1 50.1
14:55 1012 29.88 841 24.83 29 84.3 30 9.9 49.8
15:00 1012 29.88 841 24.83 28.6 83.4 31 10.2 50.4
15:05 1012 29.88 841 24.83 28.3 83 31 9.8 49.7
15:10 1012 29.88 841 24.83 27.8 82 32 10 49.9
15:15 1012 29.88 841 24.83 28.4 83.1 31 9.7 49.5
15:20 1012 29.88 841 24.83 28.8 83.8 29 9.4 49
15:25 1012 29.88 841 24.83 29 84.1 29 9.5 49
15:30 1012 29.88 841 24.83 28.8 83.8 29 9.5 49
15:35 1012 29.88 841 24.83 29.3 84.7 29 10 49.9
15:40 1012 29.88 841 24.83 29.2 84.5 31 10.6 51.1
15:45 1011 29.85 841 24.83 29.1 84.3 31 10.5 50.9
15:50 1011 29.85 841 24.83 28.8 83.9 31 10.1 50.2
15:55 1012 29.88 841 24.83 29.2 84.6 29 9.5 49
16:00 1012 29.88 841 24.83 29.1 84.3 31 10.7 51.3
16:05 1012 29.88 841 24.83 28.4 83.2 32 10.4 50.8
16:10 1012 29.88 841 24.83 28.3 83 33 10.9 51.6
16:15 1012 29.88 841 24.83 27.3 81.1 36 11.3 52.4
16:20 1012 29.88 841 24.83 26.3 79.3 37 10.8 51.5
16:25 1012 29.88 842 24.86 25.7 78.2 40 11.5 52.6
16:30 1013 29.91 842 24.86 24.8 76.6 42 11.3 52.3
16:35 1013 29.91 842 24.86 24.1 75.3 44 11.1 52
16:40 1013 29.91 842 24.86 23.8 74.8 44 11 51.9
16:45 1013 29.91 842 24.86 23.9 75.1 42 10.4 50.7
16:50 1013 29.91 842 24.86 24.4 75.9 39 9.9 49.8
16:55 1013 29.91 842 24.86 24.8 76.6 40 10.5 50.9
17:00 1013 29.91 843 24.89 23.8 74.9 42 10.4 50.7
17:05 1013 29.91 843 24.89 23.4 74.1 43 10.3 50.6
17:10 1013 29.91 842 24.86 23.2 73.8 44 10.5 51
17:15 1013 29.91 842 24.86 23.2 73.8 44 10.4 50.6
17:20 1013 29.91 842 24.86 23.4 74.2 42 10.1 50.2
17:25 1013 29.91 842 24.86 23.4 74.1 44 10.5 50.8
17:30 1013 29.91 843 24.89 22.9 73.2 44 10.2 50.4
17:35 1014 29.94 843 24.89 22.6 72.6 45 10.2 50.3
17:40 1014 29.94 843 24.89 22.2 72 45 9.8 49.6
17:45 1014 29.94 843 24.89 21.9 71.3 46 10 50
17:50 1014 29.94 843 24.89 21.7 71.1 46 9.9 49.9
17:55 1014 29.94 843 24.89 21.7 71 47 10.1 50.2
18:00 1014 29.94 843 24.89 21.3 70.4 49 10.4 50.8
18:05 1014 29.94 843 24.89 21.3 70.4 49 10.3 50.5
18:10 1014 29.94 843 24.89 21.4 70.5 49 10.4 50.8
18:15 1014 29.94 843 24.89 21.3 70.4 49 10.4 50.8
18:20 1014 29.94 843 24.89 21.4 70.5 50 10.7 51.2
18:25 1014 29.94 843 24.89 21.3 70.4 50 10.7 51.3
18:30 1014 29.94 843 24.89 21.3 70.4 51 10.9 51.6
18:35 1014 29.94 843 24.89 21 69.7 53 11.1 51.9
18:40 1014 29.94 843 24.89 20.7 69.3 54 11.2 52.2
18:45 1014 29.94 843 24.89 20.7 69.2 54 11 51.9
18:50 1014 29.94 843 24.89 20.7 69.3 53 11 51.9
18:55 1014 29.94 843 24.89 20.7 69.3 53 10.9 51.5
19:00 1014 29.94 843 24.89 20.7 69.3 53 11 51.8
19:05 1014 29.94 843 24.89 20.5 68.8 53 10.8 51.4
19:10 1014 29.94 843 24.89 20.1 68.1 53 10.3 50.6
19:15 1014 29.94 843 24.89 19.8 67.6 54 10.2 50.4
19:20 1014 29.94 843 24.89 19.8 67.6 54 10.4 50.7
19:25 1014 29.94 843 24.89 19.7 67.4 54 10.4 50.6
19:30 1014 29.94 843 24.89 19.6 67.2 54 10.3 50.5
19:35 1014 29.94 843 24.89 19.5 67.2 56 10.5 51
19:40 1014 29.94 844 24.92 19.2 66.6 58 10.8 51.5
19:45 1014 29.94 844 24.92 19.1 66.3 58 10.8 51.4
19:50 1014 29.94 844 24.92 19.1 66.3 59 11 51.8
19:55 1015 29.97 844 24.92 18.9 66 59 10.9 51.6
20:00 1015 29.97 844 24.92 18.8 65.9 60 11 51.9
20:05 1015 29.97 844 24.92 18.7 65.7 60 11 51.8
20:10 1015 29.97 844 24.92 18.7 65.6 61 11 51.8
20:15 1015 29.97 844 24.92 18.6 65.5 61 11.1 52
20:20 1015 29.97 844 24.92 18.4 65.1 63 11.2 52.2
20:25 1015 29.97 844 24.92 18.2 64.8 64 11.4 52.5
20:30 1015 29.97 844 24.92 18 64.3 66 11.6 53
20:35 1015 29.97 845 24.95 17.9 64.1 66 11.6 52.8
20:40 1016 30 845 24.95 17.6 63.6 68 11.8 53.2
20:45 1016 30 845 24.95 17.1 62.8 71 11.9 53.4
20:50 1016 30 845 24.95 16.8 62.2 73 11.9 53.4
20:55 1016 30 845 24.95 16.5 61.7 73 11.7 53.1
21:00 1015 29.97 844 24.92 16.4 61.5 73 11.6 52.9
21:05 1015 29.97 844 24.92 16.3 61.3 73 11.5 52.7
21:10 1015 29.97 844 24.92 16.1 60.9 75 11.6 52.9
21:15 1015 29.97 844 24.92 15.9 60.7 75 11.5 52.7
21:20 1015 29.97 844 24.92 16.1 60.9 74 11.4 52.5
21:25 1016 30 845 24.95 16.1 60.9 73 11.4 52.4
21:30 1016 30 845 24.95 15.9 60.7 75 11.5 52.8
21:35 1016 30 845 24.95 15.9 60.5 76 11.8 53.2
21:40 1016 30 845 24.95 16 60.9 75 11.7 53
21:45 1016 30 845 24.95 16 60.9 74 11.4 52.5
21:50 1016 30 845 24.95 16.4 61.5 72 11.4 52.5
21:55 1017 30.03 846 24.98 16.6 61.9 71 11.4 52.5
22:00 1016 30 845 24.95 16.5 61.7 72 11.4 52.6
22:05 1016 30 845 24.95 16.3 61.3 74 11.8 53.2
22:10 1016 30 845 24.95 16.2 61.1 74 11.6 52.9
22:15 1016 30 845 24.95 16.1 61 71 10.9 51.6
22:20 1016 30 845 24.95 16 60.7 71 10.7 51.3
22:25 1016 30 845 24.95 15.7 60.3 70 10.4 50.7
22:30 1016 30 846 24.98 15.5 59.8 71 10.2 50.4
22:35 1016 30 846 24.98 15.1 59.1 72 10.1 50.3
22:40 1017 30.03 846 24.98 14.8 58.7 73 10 50
22:45 1017 30.03 846 24.98 14.6 58.2 73 9.9 49.8
22:50 1017 30.03 846 24.98 14.3 57.8 73 9.6 49.3
22:55 1017 30.03 846 24.98 14.2 57.6 73 9.5 49.2
23:00 1017 30.03 846 24.98 14.3 57.7 73 9.4 49
23:05 1017 30.03 846 24.98 14.2 57.6 73 9.6 49.2
23:10 1017 30.03 846 24.98 14.2 57.5 74 9.6 49.2
23:15 1017 30.03 846 24.98 14.1 57.4 74 9.6 49.3
23:20 1017 30.03 846 24.98 14.1 57.3 74 9.5 49.2
23:25 1017 30.03 846 24.98 14.1 57.3 74 9.5 49
23:30 1017 30.03 846 24.98 14.1 57.5 73 9.5 49.1
23:35 1017 30.03 846 24.98 14.1 57.4 74 9.6 49.3
23:40 1017 30.03 846 24.98 14 57.1 75 9.7 49.4
23:45 1017 30.03 846 24.98 13.8 56.9 76 9.6 49.3
23:50 1017 30.03 846 24.98 13.9 57 76 9.8 49.6
23:55 1017 30.03 846 24.98 13.9 57.1 76 9.8 49.6
24:00 1017 30.03 846 24.98 13.9 56.9 76 9.6 49.4